Brownsville South Padre Island International Airport
KBRO : now visible

Airfield :











YOU CAN JOIN US ON...

 
LOGIN :

Register | Disclaimer

   EN    FR    IT 

 









Legend :    VFR   Marginal VFR   IFR   Intensive IFR   Very Intensive IFR
Visi :
Ceiling :
>= 8 km
>= 3000ft
5 to 8 km
1000 to 3000 ft
1500m to 5 km
500 to 1000 ft
800 to 1500m
200 to 500 ft
< 800m
< 200 ft
Symbols :   Thunderstorms  Fog  Heavy snow  Heavy precipitations  Wind > 20 kt






- Airport Elevation : 22 ft
- IATA code : BRO


KBRO - Brownsville South Padre Island International

CURRENT METAR :
  • 291853Z 19017G25KT 10SM BKN019 OVC026 24/21 A2995 RMK AO2 PK WND 18029/1803 SLP139 T02440211

EXPIRED METARs :
  • 291753Z 18020G26KT 10SM BKN019 OVC027 25/21 A2998 RMK AO2 PK WND 17031/1655 SLP150 T02500211 10256 20194 58001
  • 291653Z 18018G28KT 10SM SCT017 BKN025 BKN030 26/22 A3000 RMK AO2 PK WND 17029/1625 SLP157 T02560217

TAF KBRO
Valid from the 29 at 18:00 until the 30 at 18:00 UTC


291729Z 2918/3018 18022G30KT P6SM BKN029
FM300000 15012G17KT P6SM SCT030
FM300400 15010KT 6SM BR BKN010
FM301000 15010KT 4SM BR BKN007
FM301600 16013G21KT P6SM BKN020
KZHU FIR / North America



MET'MAP, your aeronautical weather chart ! - Copyright ORBIFLY December 2007 - Disclaimer

ORBIFLY MET'MAP TEAM :

Programming & Development : Alexandra Zaïnal
Original concept : Baudouin d'Aumeries
Technical & hardware support : Manuel Goepfert
Assistance : Marc-Olivier Méhu




SOURCES & CREDITS :

   NOAA       Earth
Advisory